Airfield :
LOGIN :

Register | Disclaimer

   EN    FR    IT 

 










Legend :    VFR   Marginal VFR   IFR   Intensive IFR   Very Intensive IFR
Visi :
Ceiling :
>= 8 km
>= 3000ft
5 to 8 km
1000 to 3000 ft
1500m to 5 km
500 to 1000 ft
800 to 1500m
200 to 500 ft
< 800m
< 200 ft
Symbols :   Thunderstorms  Fog  Heavy snow  Heavy precipitations  Wind > 20 kt
SIGMETs :     Misc.  Thunderstorms  Icing  Turbulence  Mountain Waves  Volcanic Ashes







- Airport Elevation : 285 ft
- IATA code : GOZ


LBGO - Gorna Oryahovitsa

CURRENT METAR :
  • 191200Z AUTO VRB03KT 9999 VCTS NCD 30/16 Q1015 NOSIG

EXPIRED METARs :
  • 191130Z AUTO VRB04KT 9999 FEW064 30/16 Q1015 NOSIG
  • 191100Z AUTO 28004KT 240V350 9999 FEW061 29/16 Q1015 NOSIG
  • 191030Z AUTO VRB03KT 9999 NCD 30/16 Q1015 NOSIG
  • 191000Z AUTO VRB03KT 9999 NCD 29/17 Q1016 NOSIG
  • 190930Z AUTO VRB02KT 9999 NCD 29/16 Q1016 NOSIG

TAF TAF LBGO
Valid from the 19 at 12:00 until the 20 at 12:00 UTC


191100Z 1912/2012 11010KT 9999 SCT050
PROB30
TEMPO 1912/1916 5000 TSRA FEW030CB BKN050
BECMG 1917/1919 VRB04KT CAVOK
No reported NOTAMs for that airfield.



MET'MAP, your aeronautical weather chart ! - Copyright ORBIFLY December 2007 - Disclaimer

ORBIFLY MET'MAP TEAM :

Programming & Development : Alexandra Zaïnal
Concept & Development : Baudouin d'Aumeries
Co-Development & Prog : Marc-Olivier Méhu
Technical & hardware support : Manuel Goepfert

Contact : metmap@orbifly.com




SOURCES & CREDITS :

   NOAA